Time;durP1;ratioP1;P1;durP2;ratioP2;P2;SDS_P1;SDS_P2;PMS_P1;PMS_P2;Temp;Humidity;BMP_temperature;BMP_pressure;BME280_temperature;BME280_humidity;BME280_pressure;Samples;Min_cycle;Max_cycle;Signal;HPM_P1;HPM_P2
2022/01/31 00:01:02;;;;;;;16.20;4.70;;;6.10;99.90;;;;;;4139014;28;20046;-62
2022/01/31 00:03:03;;;;;;;22.67;4.25;;;6.10;99.90;;;;;;4141467;28;20042;-62
2022/01/31 00:05:04;;;;;;;14.02;3.30;;;6.10;99.90;;;;;;4133719;28;20054;-63
2022/01/31 00:07:05;;;;;;;16.38;4.07;;;6.10;99.90;;;;;;4138751;28;20037;-64
2022/01/31 00:09:12;;;;;;;17.45;4.05;;;6.10;99.90;;;;;;4137272;28;20030;-63
2022/01/31 00:11:13;;;;;;;9.70;3.33;;;6.00;99.90;;;;;;4134557;28;20062;-62
2022/01/31 00:13:20;;;;;;;12.98;3.72;;;6.10;99.90;;;;;;4136588;28;20412;-63
2022/01/31 00:15:21;;;;;;;8.80;3.22;;;6.00;99.90;;;;;;4131174;28;20042;-62
2022/01/31 00:17:22;;;;;;;18.05;4.20;;;6.00;99.90;;;;;;4135949;28;20518;-63
2022/01/31 00:19:22;;;;;;;17.52;3.85;;;6.00;99.90;;;;;;4138047;28;20473;-63
2022/01/31 00:21:23;;;;;;;15.85;4.28;;;5.90;99.90;;;;;;4137243;28;20398;-63
2022/01/31 00:23:23;;;;;;;13.55;3.25;;;6.00;99.90;;;;;;4135083;28;20124;-62
2022/01/31 00:25:24;;;;;;;12.65;4.03;;;6.00;99.90;;;;;;4137766;28;20052;-63
2022/01/31 00:27:25;;;;;;;11.45;3.13;;;5.90;99.90;;;;;;4137473;28;20042;-63
2022/01/31 00:29:25;;;;;;;11.70;3.38;;;6.00;99.90;;;;;;4139217;28;20453;-63
2022/01/31 00:31:26;;;;;;;14.13;3.70;;;6.00;99.90;;;;;;4136477;28;20095;-63
2022/01/31 00:33:27;;;;;;;12.50;3.15;;;6.00;99.90;;;;;;4139596;28;20046;-62
2022/01/31 00:35:27;;;;;;;21.45;4.22;;;6.00;99.90;;;;;;4135885;28;21110;-63
2022/01/31 00:37:28;;;;;;;20.92;3.38;;;6.10;99.90;;;;;;4132626;28;20042;-62
2022/01/31 00:39:33;;;;;;;11.02;3.30;;;6.10;99.90;;;;;;4131304;28;20494;-63
2022/01/31 00:41:34;;;;;;;15.68;4.13;;;6.10;99.90;;;;;;4137176;28;20060;-62
2022/01/31 00:43:36;;;;;;;16.40;3.88;;;6.10;99.90;;;;;;4136148;28;20041;-64
2022/01/31 00:45:44;;;;;;;19.40;3.85;;;6.10;99.90;;;;;;4138113;28;20050;-63
2022/01/31 00:47:49;;;;;;;18.65;3.97;;;6.10;99.90;;;;;;4140795;28;20057;-63
2022/01/31 00:49:52;;;;;;;14.52;3.75;;;6.10;99.90;;;;;;4135202;28;20465;-63
2022/01/31 00:51:54;;;;;;;11.98;3.40;;;6.10;99.90;;;;;;4137375;28;20551;-63
2022/01/31 00:53:55;;;;;;;16.20;3.53;;;6.10;99.90;;;;;;4139338;28;20042;-62
2022/01/31 00:55:55;;;;;;;13.55;3.60;;;6.10;99.90;;;;;;4134451;28;20033;-63
2022/01/31 00:57:56;;;;;;;13.10;3.17;;;6.10;99.90;;;;;;4139804;28;20450;-63
2022/01/31 00:59:56;;;;;;;16.85;4.18;;;6.10;99.90;;;;;;4140476;28;20050;-63
2022/01/31 01:01:57;;;;;;;18.40;4.00;;;6.10;99.90;;;;;;4137232;28;20038;-62
2022/01/31 01:03:58;;;;;;;17.02;3.65;;;6.10;99.90;;;;;;4141881;28;20042;-61
2022/01/31 01:05:58;;;;;;;11.27;2.97;;;6.10;99.90;;;;;;4144528;28;20030;-62
2022/01/31 01:07:59;;;;;;;13.65;3.72;;;6.10;99.90;;;;;;4145462;28;20033;-62
2022/01/31 01:10:00;;;;;;;16.20;3.50;;;6.10;99.90;;;;;;4146817;28;20536;-63
2022/01/31 01:12:00;;;;;;;13.90;3.50;;;6.10;99.90;;;;;;4144945;28;20136;-62
2022/01/31 01:14:01;;;;;;;11.85;3.47;;;6.10;99.90;;;;;;4145394;28;20046;-62
2022/01/31 01:16:02;;;;;;;15.05;3.53;;;6.20;99.90;;;;;;4146538;28;20034;-62
2022/01/31 01:18:03;;;;;;;11.50;3.50;;;6.10;99.90;;;;;;4148256;28;20041;-63
2022/01/31 01:20:07;;;;;;;8.90;3.08;;;6.20;99.90;;;;;;4146323;28;20053;-64
2022/01/31 01:22:08;;;;;;;15.00;4.00;;;6.10;99.90;;;;;;4145438;28;20405;-63
2022/01/31 01:24:08;;;;;;;20.55;3.80;;;6.20;99.90;;;;;;4147177;28;20305;-62
2022/01/31 01:26:09;;;;;;;16.80;3.70;;;6.20;99.90;;;;;;4143907;28;20535;-63
2022/01/31 01:28:10;;;;;;;11.43;3.55;;;6.20;99.90;;;;;;4147081;28;20465;-63
2022/01/31 01:30:13;;;;;;;16.05;3.55;;;6.10;99.90;;;;;;4144672;28;20486;-65
2022/01/31 01:32:14;;;;;;;20.17;3.92;;;6.20;99.90;;;;;;4142208;28;20073;-67
2022/01/31 01:34:16;;;;;;;15.18;3.83;;;6.20;99.90;;;;;;4147814;28;20139;-62
2022/01/31 01:36:19;;;;;;;19.60;3.88;;;6.10;99.90;;;;;;4144469;28;20553;-64
2022/01/31 01:38:23;;;;;;;;;;;6.20;99.90;;;;;;4143643;28;20053;-64
2022/01/31 01:40:23;;;;;;;10.65;2.97;;;6.20;99.90;;;;;;4145455;28;20300;-63
2022/01/31 01:42:24;;;;;;;16.85;3.78;;;6.20;99.90;;;;;;4146846;28;20033;-63
2022/01/31 01:44:50;;;;;;;14.68;4.07;;;6.20;99.90;;;;;;4146693;28;20467;-62
2022/01/31 01:46:54;;;;;;;13.88;3.97;;;6.30;99.90;;;;;;4145354;28;20041;-62
2022/01/31 01:48:55;;;;;;;19.55;4.70;;;6.20;99.90;;;;;;4146880;28;20974;-62
2022/01/31 01:50:57;;;;;;;16.92;4.45;;;6.20;99.90;;;;;;4142123;28;20034;-62
2022/01/31 01:52:59;;;;;;;13.25;4.03;;;6.20;99.90;;;;;;4148913;28;20034;-62
2022/01/31 01:55:00;;;;;;;18.60;4.15;;;6.20;99.90;;;;;;4149096;28;20034;-62
2022/01/31 01:57:03;;;;;;;14.02;3.80;;;6.20;99.90;;;;;;4144818;28;20382;-62
2022/01/31 01:59:05;;;;;;;14.82;4.10;;;6.20;99.90;;;;;;4145349;28;20046;-62
2022/01/31 02:01:06;;;;;;;16.30;3.97;;;6.20;99.90;;;;;;4145169;28;20486;-64
2022/01/31 02:03:07;;;;;;;16.08;4.18;;;6.10;99.90;;;;;;4144516;28;20284;-63
2022/01/31 02:05:08;;;;;;;15.43;3.85;;;6.10;99.90;;;;;;4145302;28;20038;-63
2022/01/31 02:07:09;;;;;;;21.55;4.53;;;6.20;99.90;;;;;;4144952;28;20041;-63
2022/01/31 02:09:09;;;;;;;23.75;4.10;;;6.10;99.90;;;;;;4146926;28;20066;-62
2022/01/31 02:11:12;;;;;;;13.43;3.45;;;6.10;99.90;;;;;;4145837;28;20037;-62
2022/01/31 02:13:16;;;;;;;9.25;2.70;;;6.10;99.90;;;;;;4144470;28;20042;-62
2022/01/31 02:15:22;;;;;;;9.40;3.45;;;6.10;99.90;;;;;;4141943;28;20034;-63
2022/01/31 02:17:23;;;;;;;15.70;3.67;;;6.10;99.90;;;;;;4143893;28;20045;-62
2022/01/31 02:19:24;;;;;;;15.35;3.88;;;6.20;99.90;;;;;;4143456;28;20026;-62
2022/01/31 02:21:24;;;;;;;15.45;3.35;;;6.10;99.90;;;;;;4144156;28;20042;-62
2022/01/31 02:23:27;;;;;;;22.13;4.40;;;6.20;99.90;;;;;;4135761;28;20094;-61
2022/01/31 02:25:27;;;;;;;;;;;6.10;99.90;;;;;;4142611;28;20436;-61
2022/01/31 02:27:33;;;;;;;16.30;4.25;;;6.00;99.90;;;;;;4145204;28;19964;-61
2022/01/31 02:29:34;;;;;;;19.63;4.28;;;6.00;99.90;;;;;;4146261;28;21271;-59
2022/01/31 02:31:35;;;;;;;12.20;3.72;;;5.90;99.90;;;;;;4141067;28;20034;-60
2022/01/31 02:33:36;;;;;;;12.40;3.70;;;5.80;99.90;;;;;;4140449;28;20045;-61
2022/01/31 02:35:36;;;;;;;14.70;4.22;;;5.80;99.90;;;;;;4134675;28;20532;-63
2022/01/31 02:37:38;;;;;;;9.80;3.13;;;5.80;99.90;;;;;;4136174;28;20049;-63
2022/01/31 02:39:38;;;;;;;16.15;3.58;;;5.80;99.90;;;;;;4144113;28;20049;-62
2022/01/31 02:41:43;;;;;;;19.73;4.30;;;5.90;99.90;;;;;;4135096;28;20073;-62
2022/01/31 02:43:50;;;;;;;16.38;3.85;;;5.80;99.90;;;;;;4136961;28;20038;-66
2022/01/31 02:45:51;;;;;;;21.80;4.25;;;5.80;99.90;;;;;;4135200;28;20456;-61
2022/01/31 02:47:55;;;;;;;13.43;3.38;;;5.70;99.90;;;;;;4132729;28;20427;-61
2022/01/31 02:49:59;;;;;;;19.05;3.72;;;5.70;99.90;;;;;;4138932;28;20057;-61
2022/01/31 02:52:02;;;;;;;15.45;4.40;;;5.70;99.90;;;;;;4142620;28;20121;-61
2022/01/31 02:54:03;;;;;;;14.55;3.28;;;5.60;99.90;;;;;;4139892;28;20046;-60
2022/01/31 02:56:04;;;;;;;13.98;3.42;;;5.60;99.90;;;;;;4134437;28;20069;-61
2022/01/31 02:58:04;;;;;;;7.15;2.70;;;5.50;99.90;;;;;;4139006;28;20050;-61
2022/01/31 03:00:09;;;;;;;8.88;2.60;;;5.50;99.90;;;;;;4135600;28;20072;-65
2022/01/31 03:02:09;;;;;;;10.48;2.88;;;5.50;99.90;;;;;;4135436;28;20042;-60
2022/01/31 03:04:10;;;;;;;9.48;3.15;;;5.50;99.90;;;;;;4135821;28;20390;-62
2022/01/31 03:06:11;;;;;;;11.10;2.53;;;5.40;99.90;;;;;;4134473;28;20042;-61
2022/01/31 03:08:11;;;;;;;13.57;2.90;;;5.50;99.90;;;;;;4131552;28;20422;-61
2022/01/31 03:10:12;;;;;;;11.35;3.00;;;5.50;99.90;;;;;;4134993;28;20094;-62
2022/01/31 03:12:13;;;;;;;8.95;3.05;;;5.50;99.90;;;;;;4139794;28;20035;-62
2022/01/31 03:14:18;;;;;;;9.25;2.70;;;5.50;99.90;;;;;;4137832;28;20046;-61
2022/01/31 03:16:19;;;;;;;8.63;2.95;;;5.40;99.90;;;;;;4135050;28;20064;-61
2022/01/31 03:18:19;;;;;;;7.25;2.70;;;5.40;99.90;;;;;;4136094;28;20066;-61
2022/01/31 03:20:22;;;;;;;7.32;2.50;;;5.40;99.90;;;;;;4137777;28;20046;-62
2022/01/31 03:22:24;;;;;;;9.05;2.72;;;5.40;99.90;;;;;;4145043;28;20034;-61
2022/01/31 03:24:24;;;;;;;7.72;2.58;;;5.40;99.90;;;;;;4141261;28;20473;-61
2022/01/31 03:26:25;;;;;;;8.98;2.95;;;5.50;99.90;;;;;;4138968;28;20088;-62
2022/01/31 03:28:26;;;;;;;9.73;2.63;;;5.50;99.90;;;;;;4141840;28;20101;-61
2022/01/31 03:30:26;;;;;;;9.13;2.65;;;5.50;99.90;;;;;;4140230;28;20066;-60
2022/01/31 03:32:27;;;;;;;9.82;2.95;;;5.50;99.90;;;;;;4140145;28;20045;-61
2022/01/31 03:34:28;;;;;;;10.98;2.67;;;5.50;99.90;;;;;;4136506;28;20038;-62
2022/01/31 03:36:29;;;;;;;7.63;3.10;;;5.50;99.90;;;;;;4138889;28;20047;-61
2022/01/31 03:38:29;;;;;;;6.03;2.38;;;5.50;99.90;;;;;;4143449;28;20448;-62
2022/01/31 03:40:30;;;;;;;7.38;2.40;;;5.50;99.90;;;;;;4134121;28;20109;-62
2022/01/31 03:42:31;;;;;;;10.55;2.72;;;5.40;99.90;;;;;;4139187;28;20058;-61
2022/01/31 03:44:31;;;;;;;8.35;2.47;;;5.50;99.90;;;;;;4131112;28;20049;-62
2022/01/31 03:46:34;;;;;;;10.13;2.47;;;5.50;99.90;;;;;;4133545;28;20054;-61
2022/01/31 03:48:35;;;;;;;8.75;2.42;;;5.50;99.90;;;;;;4139324;28;20501;-61
2022/01/31 03:50:35;;;;;;;10.25;2.50;;;5.50;99.90;;;;;;4135198;28;20042;-61
2022/01/31 03:52:36;;;;;;;6.97;2.40;;;5.50;99.90;;;;;;4135994;28;20042;-63
2022/01/31 03:54:36;;;;;;;10.15;2.70;;;5.50;99.90;;;;;;4135976;28;20077;-62
2022/01/31 03:56:37;;;;;;;9.88;2.92;;;5.60;99.90;;;;;;4137911;28;20045;-62
2022/01/31 03:58:38;;;;;;;6.68;2.38;;;5.60;99.90;;;;;;4136551;28;20038;-60
2022/01/31 04:00:39;;;;;;;10.60;2.55;;;5.60;99.90;;;;;;4137896;28;20070;-61
2022/01/31 04:02:41;;;;;;;9.63;2.80;;;5.60;99.90;;;;;;4135197;28;20038;-61
2022/01/31 04:04:42;;;;;;;8.90;2.23;;;5.70;99.90;;;;;;4135662;28;20042;-61
2022/01/31 04:06:42;;;;;;;6.00;2.40;;;5.60;99.90;;;;;;4134529;28;20041;-62
2022/01/31 04:08:43;;;;;;;7.45;2.50;;;5.70;99.90;;;;;;4135797;28;20484;-61
2022/01/31 04:10:43;;;;;;;11.88;3.10;;;5.70;99.90;;;;;;4137150;28;20038;-61
2022/01/31 04:12:44;;;;;;;13.18;2.63;;;5.70;99.90;;;;;;4140716;28;20045;-62
2022/01/31 04:14:45;;;;;;;10.63;3.33;;;5.80;99.90;;;;;;4135040;28;20034;-63
2022/01/31 04:16:45;;;;;;;8.10;2.83;;;5.80;99.90;;;;;;4137124;28;20030;-61
2022/01/31 04:18:46;;;;;;;10.55;2.88;;;5.80;99.90;;;;;;4140824;28;20042;-62
2022/01/31 04:20:46;;;;;;;8.40;2.80;;;5.90;99.90;;;;;;4140850;28;20048;-62
2022/01/31 04:23:01;;;;;;;9.57;2.80;;;5.90;99.90;;;;;;4135339;28;20038;-62
2022/01/31 04:25:05;;;;;;;6.03;2.47;;;5.90;99.90;;;;;;4133625;28;20478;-61
2022/01/31 04:27:06;;;;;;;11.48;3.03;;;6.00;99.90;;;;;;4133884;28;20042;-66
2022/01/31 04:29:12;;;;;;;7.80;2.83;;;6.00;99.90;;;;;;4138205;28;20411;-63
2022/01/31 04:33:22;;;;;;;16.13;2.85;;;6.00;99.90;;;;;;4134180;28;20042;-62
2022/01/31 04:35:23;;;;;;;12.43;3.05;;;6.10;99.90;;;;;;4134211;28;20034;-62
2022/01/31 04:37:25;;;;;;;13.98;3.50;;;6.10;99.90;;;;;;4143788;28;20474;-62
2022/01/31 04:39:28;;;;;;;9.20;3.10;;;6.20;99.90;;;;;;4136953;28;20045;-62
2022/01/31 04:41:29;;;;;;;;;;;6.20;99.90;;;;;;4139335;28;20482;-62
2022/01/31 04:43:29;;;;;;;12.32;3.15;;;6.20;99.90;;;;;;4141617;28;19909;-61
2022/01/31 04:45:30;;;;;;;11.65;3.35;;;6.20;99.90;;;;;;4156308;28;20057;-62
2022/01/31 04:47:31;;;;;;;8.80;3.13;;;6.20;99.90;;;;;;4143075;28;20109;-62
2022/01/31 04:49:34;;;;;;;10.68;2.47;;;6.30;99.90;;;;;;4143376;28;20486;-62
2022/01/31 04:51:34;;;;;;;12.02;3.22;;;6.30;99.90;;;;;;4140136;28;22467;-61
2022/01/31 04:53:36;;;;;;;8.32;2.55;;;6.30;99.90;;;;;;4142426;28;20065;-61
2022/01/31 04:55:38;;;;;;;12.25;3.03;;;6.40;99.90;;;;;;4138447;28;20473;-62
2022/01/31 04:57:40;;;;;;;10.35;3.28;;;6.40;99.90;;;;;;4143837;28;20030;-62
2022/01/31 04:59:43;;;;;;;;;;;6.40;99.90;;;;;;4140887;28;20042;-61
2022/01/31 05:01:46;;;;;;;12.95;3.00;;;6.40;99.90;;;;;;4137223;28;19964;-62
2022/01/31 05:03:47;;;;;;;10.43;2.72;;;6.50;99.90;;;;;;4138224;28;20044;-62
2022/01/31 05:05:48;;;;;;;14.38;3.08;;;6.40;99.90;;;;;;4142264;28;20545;-62
2022/01/31 05:07:52;;;;;;;12.75;2.83;;;6.50;99.90;;;;;;4139981;28;20026;-62
2022/01/31 05:09:53;;;;;;;10.13;3.05;;;6.50;99.90;;;;;;4141527;28;20452;-60
2022/01/31 05:11:53;;;;;;;15.48;3.40;;;6.50;99.90;;;;;;4142858;28;20029;-62
2022/01/31 05:13:54;;;;;;;9.55;2.92;;;6.60;99.90;;;;;;4143730;28;20496;-62
2022/01/31 05:15:55;;;;;;;12.65;2.90;;;6.60;99.90;;;;;;4136494;28;20037;-61
2022/01/31 05:17:56;;;;;;;13.57;3.00;;;6.60;99.90;;;;;;4142308;28;20049;-62
2022/01/31 05:19:59;;;;;;;11.85;2.70;;;6.60;99.90;;;;;;4141868;28;20046;-62
2022/01/31 05:22:00;;;;;;;11.75;2.85;;;6.60;99.90;;;;;;4138540;28;20080;-62
2022/01/31 05:24:02;;;;;;;11.27;2.53;;;6.60;99.90;;;;;;4141447;28;20034;-61
2022/01/31 05:26:03;;;;;;;12.43;3.10;;;6.60;99.90;;;;;;4140182;28;20038;-61
2022/01/31 05:28:04;;;;;;;11.10;3.17;;;6.60;99.90;;;;;;4143130;28;20515;-62
2022/01/31 05:30:05;;;;;;;11.50;3.20;;;6.60;99.90;;;;;;4138516;28;20054;-63
2022/01/31 05:32:07;;;;;;;12.48;3.03;;;6.60;99.90;;;;;;4141108;28;20092;-68
2022/01/31 05:34:07;;;;;;;12.65;2.92;;;6.70;99.90;;;;;;4138169;28;20026;-62
2022/01/31 05:36:08;;;;;;;10.80;2.83;;;6.70;99.90;;;;;;4131263;28;20048;-62
2022/01/31 05:38:08;;;;;;;13.05;3.00;;;6.70;99.90;;;;;;4137965;28;20449;-62
2022/01/31 05:40:10;;;;;;;15.38;3.15;;;6.70;99.90;;;;;;4140770;28;20042;-61
2022/01/31 05:42:10;;;;;;;9.38;2.80;;;6.70;99.90;;;;;;4140088;28;20034;-62
2022/01/31 05:44:11;;;;;;;10.73;2.55;;;6.70;99.90;;;;;;4141785;28;20136;-61
2022/01/31 05:46:11;;;;;;;14.50;2.92;;;6.70;99.90;;;;;;4140833;28;20041;-62
2022/01/31 05:48:12;;;;;;;13.02;3.35;;;6.70;99.90;;;;;;4132435;28;20113;-62
2022/01/31 05:50:13;;;;;;;11.85;2.95;;;6.70;99.90;;;;;;4137837;28;20042;-62
2022/01/31 05:52:14;;;;;;;18.10;3.65;;;6.70;99.90;;;;;;4140917;28;20377;-61
2022/01/31 05:54:15;;;;;;;12.25;3.15;;;6.70;99.90;;;;;;4143471;28;20041;-61
2022/01/31 05:56:17;;;;;;;12.18;2.60;;;6.70;99.90;;;;;;4138567;28;20492;-63
2022/01/31 05:58:17;;;;;;;14.38;3.08;;;6.70;99.90;;;;;;4154084;28;20048;-62
2022/01/31 06:00:18;;;;;;;14.38;3.05;;;6.80;99.90;;;;;;4142136;28;20042;-62
2022/01/31 06:02:19;;;;;;;24.35;3.40;;;6.70;99.90;;;;;;4143126;28;20449;-62
2022/01/31 06:04:20;;;;;;;19.77;3.50;;;6.70;99.90;;;;;;4144795;28;20042;-62
2022/01/31 06:06:23;;;;;;;16.92;2.83;;;6.70;99.90;;;;;;4134784;28;20125;-61
2022/01/31 06:08:23;;;;;;;16.02;3.30;;;6.70;99.90;;;;;;4134490;28;20552;-62
2022/01/31 06:10:24;;;;;;;12.18;3.10;;;6.70;99.90;;;;;;4159293;28;20120;-61
2022/01/31 06:12:24;;;;;;;19.92;3.13;;;6.70;99.90;;;;;;4133303;28;20470;-62
2022/01/31 06:14:25;;;;;;;24.65;3.28;;;6.70;99.90;;;;;;4143568;28;20065;-62
2022/01/31 06:16:27;;;;;;;14.30;2.80;;;6.70;99.90;;;;;;4141353;28;20548;-62
2022/01/31 06:18:28;;;;;;;16.45;2.90;;;6.80;99.90;;;;;;4143957;28;20073;-62
2022/01/31 06:20:28;;;;;;;13.50;2.88;;;6.80;99.90;;;;;;4139211;28;20057;-62
2022/01/31 06:22:29;;;;;;;11.23;2.80;;;6.80;99.90;;;;;;4137476;28;20084;-62
2022/01/31 06:24:29;;;;;;;18.67;3.20;;;6.70;99.90;;;;;;4144493;28;21642;-62
2022/01/31 06:26:30;;;;;;;10.65;3.05;;;6.70;99.90;;;;;;4143376;28;20038;-61
2022/01/31 06:28:30;;;;;;;21.33;3.05;;;6.70;99.90;;;;;;4138597;28;20062;-62
2022/01/31 06:30:32;;;;;;;24.30;3.40;;;6.70;99.90;;;;;;4140796;28;20777;-62
2022/01/31 06:32:32;;;;;;;15.23;3.05;;;6.70;99.90;;;;;;4141617;28;20049;-61
2022/01/31 06:34:33;;;;;;;15.05;2.95;;;6.70;99.90;;;;;;4138797;28;20034;-61
2022/01/31 06:36:33;;;;;;;10.88;2.63;;;6.60;99.90;;;;;;4140435;28;20535;-61
2022/01/31 06:38:38;;;;;;;14.90;3.05;;;6.30;99.90;;;;;;4145201;28;20049;-61
2022/01/31 06:40:39;;;;;;;9.52;2.20;;;6.30;99.90;;;;;;4143164;28;20104;-62
2022/01/31 06:42:40;;;;;;;16.17;2.47;;;6.10;99.90;;;;;;4136891;28;20033;-60
2022/01/31 06:44:41;;;;;;;17.00;2.80;;;6.00;99.90;;;;;;4155332;28;20069;-60
2022/01/31 06:46:41;;;;;;;11.68;2.20;;;5.80;99.90;;;;;;4142629;28;20118;-62
2022/01/31 06:48:42;;;;;;;11.20;2.05;;;5.80;99.90;;;;;;4143648;28;20124;-63
2022/01/31 06:50:43;;;;;;;9.50;2.17;;;5.70;99.90;;;;;;4142722;28;20042;-61
2022/01/31 06:52:44;;;;;;;7.20;1.52;;;5.60;99.90;;;;;;4139944;28;20081;-61
2022/01/31 06:54:49;;;;;;;8.85;1.70;;;5.50;99.90;;;;;;4139874;28;20034;-61
2022/01/31 06:56:50;;;;;;;7.53;1.50;;;5.50;99.90;;;;;;4139592;28;20092;-63
2022/01/31 06:58:50;;;;;;;9.10;1.58;;;5.50;99.90;;;;;;4143657;28;20038;-61
2022/01/31 07:00:51;;;;;;;8.68;1.63;;;5.50;99.90;;;;;;4140661;28;20042;-62
2022/01/31 07:02:52;;;;;;;7.15;1.50;;;5.50;99.90;;;;;;4143178;28;20038;-61
2022/01/31 07:04:53;;;;;;;6.38;1.15;;;5.50;99.90;;;;;;4137131;28;20053;-61
2022/01/31 07:06:53;;;;;;;4.78;1.48;;;5.50;99.90;;;;;;4136042;28;20062;-62
2022/01/31 07:08:54;;;;;;;4.40;1.20;;;5.60;99.90;;;;;;4139406;28;20061;-62
2022/01/31 07:10:55;;;;;;;6.90;1.48;;;5.60;99.90;;;;;;4142114;28;20029;-62
2022/01/31 07:12:57;;;;;;;6.53;1.13;;;5.60;99.90;;;;;;4142708;28;20045;-62
2022/01/31 07:14:59;;;;;;;4.97;1.63;;;5.60;99.90;;;;;;4139313;28;20045;-62
2022/01/31 07:17:05;;;;;;;7.15;1.58;;;5.60;99.90;;;;;;4142714;28;20038;-62
2022/01/31 07:19:08;;;;;;;5.57;1.27;;;5.60;99.90;;;;;;4139050;28;20073;-62
2022/01/31 07:21:13;;;;;;;7.63;1.88;;;5.70;99.90;;;;;;4138606;28;20054;-65
2022/01/31 07:23:18;;;;;;;7.60;1.55;;;5.60;99.90;;;;;;4138939;28;20099;-63
2022/01/31 07:25:34;;;;;;;8.52;2.10;;;5.60;99.90;;;;;;4140587;28;20393;-63
2022/01/31 07:27:37;;;;;;;7.75;1.75;;;5.60;99.90;;;;;;4139786;28;20109;-62
2022/01/31 07:29:39;;;;;;;15.23;2.80;;;5.60;99.90;;;;;;4139869;28;20465;-64
2022/01/31 07:31:44;;;;;;;8.75;2.10;;;5.60;99.90;;;;;;4138979;28;20038;-63
2022/01/31 07:33:45;;;;;;;13.13;2.58;;;5.60;99.90;;;;;;4142508;28;20489;-61
2022/01/31 07:35:50;;;;;;;11.75;2.55;;;5.60;99.90;;;;;;4140656;28;20104;-66
2022/01/31 07:37:51;;;;;;;12.60;2.13;;;5.60;99.90;;;;;;4141361;28;20080;-62
2022/01/31 07:39:52;;;;;;;15.05;3.05;;;5.60;99.90;;;;;;4142257;28;20061;-62
2022/01/31 07:41:52;;;;;;;14.18;2.50;;;5.60;99.90;;;;;;4132774;28;20523;-62
2022/01/31 07:43:53;;;;;;;14.75;2.80;;;5.60;99.90;;;;;;4140756;28;20049;-62
2022/01/31 07:45:53;;;;;;;10.77;2.67;;;5.60;99.90;;;;;;4138461;28;20128;-62
2022/01/31 07:47:54;;;;;;;20.58;3.13;;;5.60;99.90;;;;;;4140604;28;20042;-62
2022/01/31 07:49:55;;;;;;;16.08;2.75;;;5.60;99.90;;;;;;4136749;28;20067;-63
2022/01/31 07:51:56;;;;;;;16.88;3.15;;;5.60;99.90;;;;;;4141170;28;20048;-61
2022/01/31 07:53:57;;;;;;;15.98;3.15;;;5.50;99.90;;;;;;4141155;28;22789;-62
2022/01/31 07:56:00;;;;;;;12.63;2.45;;;5.60;99.90;;;;;;4140444;28;20046;-62
2022/01/31 07:58:02;;;;;;;18.27;3.08;;;5.60;99.90;;;;;;4140503;28;20056;-63
2022/01/31 08:00:05;;;;;;;18.58;3.47;;;5.60;99.90;;;;;;4138602;28;20053;-62
2022/01/31 08:02:05;;;;;;;10.77;2.88;;;5.60;99.90;;;;;;4141073;28;20489;-62
2022/01/31 08:04:06;;;;;;;17.27;3.20;;;5.60;99.90;;;;;;4140966;28;20050;-62
2022/01/31 08:06:07;;;;;;;15.80;2.65;;;5.60;99.90;;;;;;4138938;28;20044;-62
2022/01/31 08:08:08;;;;;;;16.50;3.22;;;5.60;99.90;;;;;;4141211;28;20388;-63
2022/01/31 08:10:08;;;;;;;12.32;2.80;;;5.60;99.90;;;;;;4140568;28;20037;-63
2022/01/31 08:12:10;;;;;;;14.23;2.30;;;5.60;99.90;;;;;;4140399;28;20041;-62
2022/01/31 08:14:13;;;;;;;14.52;2.80;;;5.60;99.90;;;;;;4141172;28;20034;-63
2022/01/31 08:16:15;;;;;;;13.77;2.90;;;5.60;99.90;;;;;;4139256;28;20117;-63
2022/01/31 08:18:15;;;;;;;17.70;3.03;;;5.60;99.90;;;;;;4141608;28;20052;-60
2022/01/31 08:20:16;;;;;;;15.32;3.08;;;5.60;99.90;;;;;;4139673;28;20085;-64
2022/01/31 08:22:17;;;;;;;12.07;2.30;;;5.60;99.90;;;;;;4141271;28;20052;-63
2022/01/31 08:24:17;;;;;;;14.20;2.70;;;5.60;99.90;;;;;;4142408;28;20042;-62
2022/01/31 08:26:19;;;;;;;10.52;2.75;;;5.60;99.90;;;;;;4138718;28;20037;-63
2022/01/31 08:28:28;;;;;;;13.70;2.85;;;5.70;99.90;;;;;;4141559;28;20712;-62
2022/01/31 08:30:37;;;;;;;14.48;3.03;;;5.70;99.90;;;;;;4140188;28;20038;-62
2022/01/31 08:32:45;;;;;;;16.23;2.78;;;5.60;99.90;;;;;;4140379;28;20053;-63
2022/01/31 08:37:04;;;;;;;10.35;2.30;;;5.60;99.90;;;;;;4138549;28;20107;-62
2022/01/31 08:39:08;;;;;;;12.90;2.55;;;5.60;99.90;;;;;;4141125;28;20137;-62
2022/01/31 08:41:11;;;;;;;17.98;2.75;;;5.60;99.90;;;;;;4138807;28;20053;-63
2022/01/31 08:43:14;;;;;;;21.17;3.78;;;5.60;99.90;;;;;;4139975;28;20477;-63
2022/01/31 08:45:15;;;;;;;13.60;2.65;;;5.60;99.90;;;;;;4137096;28;20059;-63
2022/01/31 08:47:15;;;;;;;18.98;2.95;;;5.60;99.90;;;;;;4140702;28;20069;-62
2022/01/31 08:49:16;;;;;;;16.35;3.10;;;5.60;99.90;;;;;;4138495;28;20045;-62
2022/01/31 08:51:17;;;;;;;17.40;3.05;;;5.60;99.90;;;;;;4137868;28;20049;-64
2022/01/31 08:53:17;;;;;;;12.63;2.38;;;5.60;99.90;;;;;;4139702;28;20120;-63
2022/01/31 08:55:20;;;;;;;15.05;3.10;;;5.60;99.90;;;;;;4138134;28;20105;-63
2022/01/31 08:57:21;;;;;;;11.75;3.03;;;5.60;99.90;;;;;;4140848;28;20100;-62
2022/01/31 08:59:24;;;;;;;14.50;2.70;;;5.60;99.90;;;;;;4140527;28;20045;-62
2022/01/31 09:01:25;;;;;;;9.68;2.45;;;5.60;99.90;;;;;;4138338;28;20054;-63
2022/01/31 09:03:55;;;;;;;16.08;2.75;;;5.60;99.90;;;;;;4139854;28;20046;-62
2022/01/31 09:05:55;;;;;;;12.23;2.63;;;5.60;99.90;;;;;;4138248;28;20081;-62
2022/01/31 09:07:56;;;;;;;20.08;3.63;;;5.60;99.90;;;;;;4140884;28;20045;-62
2022/01/31 09:09:58;;;;;;;11.43;2.58;;;5.60;99.90;;;;;;4140888;28;20038;-63
2022/01/31 09:11:59;;;;;;;12.77;2.78;;;5.60;99.90;;;;;;4137790;28;20054;-62
2022/01/31 09:14:00;;;;;;;16.13;3.30;;;5.60;99.90;;;;;;4138317;28;20122;-62
2022/01/31 09:16:02;;;;;;;17.98;3.25;;;5.70;99.90;;;;;;4137693;28;20054;-62
2022/01/31 09:18:03;;;;;;;13.63;3.35;;;5.70;99.90;;;;;;4140337;28;20112;-62
2022/01/31 09:20:04;;;;;;;22.10;3.13;;;5.70;99.90;;;;;;4141019;28;20539;-63
2022/01/31 09:22:05;;;;;;;23.42;4.43;;;5.70;99.90;;;;;;4139499;28;20046;-62
2022/01/31 09:24:06;;;;;;;18.45;3.65;;;5.60;99.90;;;;;;4140989;28;20050;-61
2022/01/31 09:26:06;;;;;;;14.48;2.95;;;5.60;99.90;;;;;;4140253;28;20121;-62
2022/01/31 09:28:07;;;;;;;17.75;3.30;;;5.70;99.90;;;;;;4144615;28;20158;-62
2022/01/31 09:30:09;;;;;;;19.27;3.78;;;5.70;99.90;;;;;;4142540;28;20045;-65
2022/01/31 09:32:12;;;;;;;21.70;3.63;;;5.70;99.90;;;;;;4141664;28;20042;-63
2022/01/31 09:34:13;;;;;;;19.90;3.95;;;5.60;99.90;;;;;;4143626;28;20113;-62
2022/01/31 09:36:14;;;;;;;12.05;3.00;;;5.60;99.90;;;;;;4141786;28;20084;-63
2022/01/31 09:38:17;;;;;;;19.50;3.42;;;5.70;99.90;;;;;;4144141;28;20034;-62
2022/01/31 09:40:21;;;;;;;16.73;3.45;;;5.70;99.90;;;;;;4140811;28;20046;-63
2022/01/31 09:42:31;;;;;;;21.92;3.90;;;5.80;99.90;;;;;;4142005;28;20043;-63
2022/01/31 09:44:44;;;;;;;15.40;3.45;;;5.70;99.90;;;;;;4143780;28;20065;-62
2022/01/31 09:47:04;;;;;;;18.58;3.92;;;5.80;99.90;;;;;;4140452;28;20042;-63
2022/01/31 09:49:05;;;;;;;22.05;3.92;;;5.80;99.90;;;;;;4142724;28;20050;-62
2022/01/31 09:51:18;;;;;;;22.17;3.50;;;5.80;99.90;;;;;;4142206;28;20495;-62
2022/01/31 09:53:18;;;;;;;22.40;4.47;;;5.80;99.90;;;;;;4141736;28;20087;-63
2022/01/31 09:55:20;;;;;;;24.13;3.85;;;5.80;99.90;;;;;;4138424;28;20592;-62
2022/01/31 09:57:20;;;;;;;21.67;4.50;;;5.80;99.90;;;;;;4144050;28;20397;-62
2022/01/31 09:59:21;;;;;;;21.00;3.63;;;5.80;99.90;;;;;;4143286;28;20277;-63
2022/01/31 10:01:31;;;;;;;25.23;4.57;;;5.80;99.90;;;;;;4141357;28;20497;-62
2022/01/31 10:03:32;;;;;;;26.98;4.72;;;5.80;99.90;;;;;;4142811;28;20127;-62
2022/01/31 10:05:32;;;;;;;28.95;4.55;;;5.80;99.90;;;;;;4141075;28;20041;-63
2022/01/31 10:07:45;;;;;;;22.50;4.57;;;5.80;99.90;;;;;;4143813;28;20081;-62
2022/01/31 10:09:49;;;;;;;22.50;3.87;;;5.80;99.90;;;;;;4142430;28;20473;-62
2022/01/31 10:11:53;;;;;;;25.42;4.55;;;5.80;99.90;;;;;;4141524;28;20288;-63
2022/01/31 10:16:32;;;;;;;31.20;4.53;;;5.80;99.90;;;;;;4140933;28;20074;-61
2022/01/31 10:18:32;;;;;;;18.02;4.18;;;5.80;99.90;;;;;;4143033;28;20080;-61
2022/01/31 10:20:35;;;;;;;24.58;3.75;;;5.80;99.90;;;;;;4140450;28;20444;-62
2022/01/31 10:22:38;;;;;;;;;;;5.80;99.90;;;;;;4143567;28;20165;-62
2022/01/31 10:24:41;;;;;;;29.40;3.78;;;5.80;99.90;;;;;;4139614;28;19972;-64
2022/01/31 10:26:41;;;;;;;25.33;4.22;;;5.80;99.90;;;;;;4142045;28;20038;-62
2022/01/31 10:28:42;;;;;;;23.83;3.55;;;5.80;99.90;;;;;;4142198;28;20088;-62
2022/01/31 10:30:45;;;;;;;20.35;4.10;;;5.80;99.90;;;;;;4141531;28;20126;-61
2022/01/31 10:32:48;;;;;;;20.85;4.25;;;5.80;99.90;;;;;;4142293;28;20107;-62
2022/01/31 10:34:55;;;;;;;37.47;5.30;;;5.80;99.90;;;;;;4141417;28;20068;-61
2022/01/31 10:37:02;;;;;;;26.23;4.40;;;5.80;99.90;;;;;;4141642;28;20046;-62
2022/01/31 10:39:15;;;;;;;29.42;4.60;;;5.80;99.90;;;;;;4141425;28;20050;-62
2022/01/31 10:44:30;;;;;;;26.73;4.45;;;5.90;99.90;;;;;;4116789;28;20266;-63
2022/01/31 10:53:44;;;;;;;33.05;6.13;;;5.90;99.90;;;;;;4142367;28;20054;-62
2022/01/31 10:55:55;;;;;;;29.48;5.78;;;5.90;99.90;;;;;;4126509;28;20173;-63